< Cyclone 200013 2001 Season Cyclone 200102 >
Cyclone 200101 (SAM)
General InformationDetailed Track InformationTrack Information on Google MapsList of All Images || ResourceGoogle EarthGE AnimationAtom FeedGeoJSON
Detalied Best Track Wind (Time Zone = UTC)
Year Month Day Hour Lat. Long. Wind (kt) Gust (kt) Direc. of Major Storm Axis Radius of Major Storm Axis (nm) Radius of Minor Storm Axis (nm) Direc. of Major Gale Axis Radius of Major Gale Axis (nm) Radius of Minor Gale Axis (nm) Image
2000 11 28 00 -10.9 140.0 19 -1 symmetric - - symmetric - - Image
2000 11 28 06 -10.9 138.7 25 -1 symmetric - - symmetric - - Image
2000 11 28 12 -10.8 137.3 23 -1 symmetric - - symmetric - - Image
2000 11 28 18 -10.6 136.1 23 -1 symmetric - - symmetric - - Image
2000 11 29 00 -10.4 135.0 23 -1 symmetric - - symmetric - - Image
2000 11 29 06 -10.1 134.1 25 -1 symmetric - - symmetric - - Image
2000 11 29 12 -9.9 133.0 23 -1 symmetric - - symmetric - - Image
2000 11 29 18 -9.9 132.0 25 -1 symmetric - - symmetric - - Image
2000 11 30 00 -9.9 131.0 23 -1 symmetric - - symmetric - - Image
2000 11 30 06 -9.9 130.0 25 -1 symmetric - - symmetric - - Image
2000 11 30 12 -9.9 129.5 23 -1 symmetric - - symmetric - - Image
2000 11 30 18 -9.9 129.3 25 -1 symmetric - - symmetric - - Image
2000 12 1 00 -10.0 129.0 23 -1 symmetric - - symmetric - - Image
2000 12 1 06 -10.2 128.9 25 -1 symmetric - - symmetric - - Image
2000 12 1 12 -10.4 128.8 25 -1 symmetric - - symmetric - - Image
2000 12 1 18 -10.5 128.7 27 -1 symmetric - - symmetric - - Image
2000 12 2 00 -10.6 128.6 25 -1 symmetric - - symmetric - - Image
2000 12 2 06 -10.8 128.4 29 -1 symmetric - - symmetric - - Image
2000 12 2 12 -10.9 128.2 27 -1 symmetric - - symmetric - - Image
2000 12 2 18 -11.1 128.1 29 -1 symmetric - - symmetric - - Image
2000 12 3 00 -11.4 128.2 27 -1 symmetric - - symmetric - - Image
2000 12 3 06 -11.9 128.4 31 -1 symmetric - - symmetric - - Image
2000 12 3 12 -12.5 128.5 31 -1 symmetric - - symmetric - - Image
2000 12 3 18 -13.2 128.3 31 -1 symmetric - - symmetric - - Image
2000 12 4 00 -13.9 127.6 29 -1 symmetric - - symmetric - - Image
2000 12 4 06 -14.2 126.9 33 -1 symmetric - - symmetric - - Image
2000 12 4 12 -14.3 126.1 35 -1 symmetric - - symmetric - - Image
2000 12 4 18 -14.3 125.3 35 -1 symmetric - - symmetric - - Image
2000 12 5 00 -14.2 124.8 39 -1 symmetric - - symmetric - - Image
2000 12 5 04 -14.0 124.4 41 -1 symmetric - - symmetric - - Image
2000 12 5 10 -13.9 123.7 49 -1 symmetric - - symmetric - - Image
2000 12 5 16 -14.1 123.0 54 -1 symmetric - - symmetric - - Image
2000 12 5 22 -14.4 122.2 54 -1 symmetric - - symmetric - - Image
2000 12 6 04 -14.5 122.1 60 -1 symmetric - - symmetric - - Image
2000 12 6 10 -15.0 122.0 60 -1 symmetric - - symmetric - - Image
2000 12 6 16 -15.7 122.0 60 -1 symmetric - - symmetric - - Image
2000 12 6 19 -16.0 121.9 60 -1 symmetric - - symmetric - - Image
2000 12 6 22 -16.3 121.7 64 -1 symmetric - - symmetric - - Image
2000 12 7 01 -16.6 121.5 64 -1 symmetric - - symmetric - - Image
2000 12 7 04 -16.9 121.3 64 -1 symmetric - - symmetric - - Image
2000 12 7 07 -17.3 121.1 64 -1 symmetric - - symmetric - - Image
2000 12 7 10 -17.5 121.0 70 -1 symmetric - - symmetric - - Image
2000 12 7 13 -17.6 120.9 76 -1 symmetric - - symmetric - - Image
2000 12 7 16 -17.7 120.8 80 -1 symmetric - - symmetric - - Image
2000 12 7 19 -17.8 120.8 84 -1 symmetric - - symmetric - - Image
2000 12 7 22 -17.8 120.8 84 -1 symmetric - - symmetric - - Image
2000 12 8 01 -17.9 120.9 84 -1 symmetric - - symmetric - - Image
2000 12 8 04 -18.0 121.0 84 -1 symmetric - - symmetric - - Image
2000 12 8 07 -18.3 121.2 89 -1 symmetric - - symmetric - - Image
2000 12 8 10 -18.5 121.4 93 -1 symmetric - - symmetric - - Image
2000 12 8 13 -18.8 121.6 97 -1 symmetric - - symmetric - - Image
2000 12 8 16 -19.1 121.6 93 -1 symmetric - - symmetric - - Image
2000 12 8 19 -19.2 121.9 84 -1 symmetric - - symmetric - - Image
2000 12 8 22 -19.4 122.2 80 -1 symmetric - - symmetric - - Image
2000 12 9 01 -19.7 122.4 76 -1 symmetric - - symmetric - - Image
2000 12 9 04 -20.0 122.6 70 -1 symmetric - - symmetric - - Image
2000 12 9 07 -20.3 122.9 64 -1 symmetric - - symmetric - - Image
2000 12 9 10 -20.5 123.3 60 -1 symmetric - - symmetric - - Image
2000 12 9 13 -20.7 123.6 54 -1 symmetric - - symmetric - - Image
2000 12 9 16 -20.8 123.9 54 -1 symmetric - - symmetric - - Image
2000 12 9 22 -21.0 124.3 49 -1 symmetric - - symmetric - - Image
2000 12 10 04 -21.4 124.9 49 -1 symmetric - - symmetric - - Image
2000 12 10 10 -21.7 125.2 41 -1 symmetric - - symmetric - - Image
2000 12 10 18 -21.5 125.8 41 -1 symmetric - - symmetric - - Image
2000 12 11 00 -21.4 126.0 39 -1 symmetric - - symmetric - - Image
2000 12 11 06 -21.3 126.9 33 -1 symmetric - - symmetric - - Image
2000 12 11 12 -21.1 128.0 35 -1 symmetric - - symmetric - - Image
2000 12 11 18 -20.4 128.5 35 -1 symmetric - - symmetric - - Image
2000 12 12 00 -19.9 129.0 39 -1 symmetric - - symmetric - - Image
2000 12 12 06 -20.0 129.5 41 -1 symmetric - - symmetric - - Image
2000 12 12 12 -20.4 130.0 45 -1 symmetric - - symmetric - - Image
2000 12 12 18 -20.4 131.0 43 -1 symmetric - - symmetric - - Image
2000 12 13 00 -20.4 132.0 41 -1 symmetric - - symmetric - - Image
2000 12 13 06 -20.4 133.0 39 -1 symmetric - - symmetric - - Image
2000 12 13 12 -20.4 134.0 35 -1 symmetric - - symmetric - - Image
2000 12 13 18 -20.4 134.8 33 -1 symmetric - - symmetric - - Image
2000 12 14 00 -20.4 135.5 29 -1 symmetric - - symmetric - - Image
< Cyclone 200013 2001 Season Cyclone 200102 >

Help